Wynona, Oklahoma
Current Conditions -  °F | °C
As of 9:53 AM on Thursday 23 Oct 2014 (Local Time) from KBVO Reporting Station
Overcast Overcast  
Wind Chill: 59°   Ceiling: 4500
Heat Index: 59°   Visibility: 7mi
Dew Point: 58°   Wind: 7mph
Humidity: 96%   Direction: 180°S
Pressure: 30.16"   Gusts: NA
Location:  36.55°N, 96.33°W
Report Text: KBVO 231453Z AUTO 18006KT 7SM FEW007 BKN045 OVC095 15/14 A3016 RMK AO2 SLP206 T01500144 52011
Loading
Personal Weather Stations






























Interactive Weather Map
Tropical Storm Tracking
New forecast layout! Learn more

10-Day Weather Forecast

Advertisements
Track Severe Weather on mobile